KCAR 170454Z AUTO 05004KT 10SM CLR M06/M08 A2993 RMK AO2 SLP147 T10561078 400171083